createdAt,value
2023-03-22T00:04:49.505Z,100149.00
2023-03-22T00:09:51.924Z,100137.38
2023-03-22T00:14:55.477Z,100135.75
2023-03-22T00:19:58.673Z,100141.72
2023-03-22T00:25:00.994Z,100133.06
2023-03-22T00:30:05.815Z,100121.28
2023-03-22T00:35:08.553Z,100129.75
2023-03-22T00:40:14.877Z,100111.13
2023-03-22T00:45:17.922Z,100138.72
2023-03-22T00:50:20.831Z,100137.53
2023-03-22T00:55:23.742Z,100119.97
2023-03-22T01:00:25.920Z,100110.41
2023-03-22T01:05:28.768Z,100106.34
2023-03-22T01:10:31.611Z,100105.34
2023-03-22T01:15:34.042Z,100076.59
2023-03-22T01:20:36.554Z,100103.28
2023-03-22T01:25:38.698Z,100101.22
2023-03-22T01:30:41.466Z,100081.91
2023-03-22T01:35:43.945Z,100069.91
2023-03-22T01:40:46.113Z,100067.66
2023-03-22T01:45:49.491Z,100069.97
2023-03-22T01:51:03.520Z,100068.47
2023-03-22T01:56:06.480Z,100092.63
2023-03-22T02:01:11.556Z,100102.34
2023-03-22T02:06:13.774Z,100104.97
2023-03-22T02:11:25.789Z,100095.09
2023-03-22T02:16:47.119Z,100083.94
2023-03-22T02:22:17.056Z,100108.97
2023-03-22T02:27:49.900Z,100120.72
2023-03-22T02:33:07.459Z,100113.31
2023-03-22T02:38:18.481Z,100129.78
2023-03-22T02:43:21.079Z,100129.41
2023-03-22T02:48:28.638Z,100130.34
2023-03-22T02:53:48.028Z,100123.38
2023-03-22T02:58:57.745Z,100125.06
2023-03-22T03:04:05.140Z,100100.66
2023-03-22T03:09:08.449Z,100130.06
2023-03-22T03:14:21.152Z,100114.16
2023-03-22T03:19:52.117Z,100138.81
2023-03-22T03:25:25.267Z,100150.13
2023-03-22T03:30:43.542Z,100171.44
2023-03-22T03:35:59.008Z,100160.78
2023-03-22T03:41:09.474Z,100179.28
2023-03-22T03:46:12.367Z,100184.63
2023-03-22T03:51:14.558Z,100176.09
2023-03-22T03:56:16.681Z,100175.59
2023-03-22T04:01:20.037Z,100182.47
2023-03-22T04:06:22.235Z,100179.81
2023-03-22T04:11:24.345Z,100174.81
2023-03-22T04:16:26.624Z,100158.00
2023-03-22T04:21:28.810Z,100181.19
2023-03-22T04:26:32.516Z,100174.56
2023-03-22T04:31:36.938Z,100183.56
2023-03-22T04:36:42.216Z,100170.06
2023-03-22T04:41:44.261Z,100191.75
2023-03-22T04:46:46.530Z,100180.13
2023-03-22T04:51:48.798Z,100195.88
2023-03-22T04:56:51.329Z,100195.41
2023-03-22T05:01:54.633Z,100190.31
2023-03-22T05:06:56.793Z,100197.38
2023-03-22T05:11:58.908Z,100204.91
2023-03-22T05:17:01.199Z,100208.03
2023-03-22T05:22:03.388Z,100200.00
2023-03-22T05:27:06.197Z,100206.41
2023-03-22T05:32:08.320Z,100219.75
2023-03-22T05:37:10.636Z,100211.88
2023-03-22T05:42:12.763Z,100219.25
2023-03-22T05:47:14.950Z,100233.47
2023-03-22T05:52:17.157Z,100238.25
2023-03-22T05:57:19.346Z,100225.00
2023-03-22T06:02:22.494Z,100246.00
2023-03-22T06:07:25.737Z,100276.25
2023-03-22T06:12:30.093Z,100276.88
2023-03-22T06:17:32.781Z,100277.47
2023-03-22T06:22:35.434Z,100277.03
2023-03-22T06:27:38.360Z,100282.59
2023-03-22T06:32:40.605Z,100289.69
2023-03-22T06:37:42.866Z,100301.31
2023-03-22T06:42:44.985Z,100310.69
2023-03-22T06:47:47.100Z,100314.03
2023-03-22T06:52:49.367Z,100328.34
2023-03-22T06:57:51.536Z,100319.84
2023-03-22T07:02:53.697Z,100305.13
2023-03-22T07:07:55.965Z,100337.03
2023-03-22T07:12:58.628Z,100335.59
2023-03-22T07:18:02.046Z,100331.28
2023-03-22T07:23:04.588Z,100324.41
2023-03-22T07:28:07.382Z,100332.28
2023-03-22T07:33:10.893Z,100357.53
2023-03-22T07:38:13.575Z,100342.19
2023-03-22T07:43:16.186Z,100344.47
2023-03-22T07:48:22.432Z,100347.56
2023-03-22T07:53:24.831Z,100351.88
2023-03-22T07:58:27.100Z,100343.72
2023-03-22T08:03:29.290Z,100336.31
2023-03-22T08:08:32.323Z,100325.03
2023-03-22T08:13:35.286Z,100324.00
2023-03-22T08:18:38.449Z,100333.84
2023-03-22T08:23:42.357Z,100331.00
2023-03-22T08:28:44.945Z,100322.72
2023-03-22T08:33:48.525Z,100341.00
2023-03-22T08:38:50.863Z,100347.63
2023-03-22T08:43:53.001Z,100330.25
2023-03-22T08:48:55.315Z,100327.59
2023-03-22T08:54:00.703Z,100318.09
2023-03-22T08:59:03.053Z,100311.22
2023-03-22T09:04:06.052Z,100327.03
2023-03-22T09:09:08.475Z,100334.53
2023-03-22T09:14:11.074Z,100329.16
2023-03-22T09:19:13.316Z,100312.38
2023-03-22T09:24:15.427Z,100338.34
2023-03-22T09:29:17.798Z,100334.88
2023-03-22T09:34:20.210Z,100351.53
2023-03-22T09:39:22.892Z,100320.31
2023-03-22T09:44:32.647Z,100310.56
2023-03-22T09:49:53.061Z,100327.88
2023-03-22T09:54:56.162Z,100337.66
2023-03-22T10:00:19.067Z,100336.31
2023-03-22T10:05:30.627Z,100338.22
2023-03-22T10:10:32.956Z,100317.06
2023-03-22T10:15:39.356Z,100320.50
2023-03-22T10:21:07.264Z,100317.91
2023-03-22T10:26:18.722Z,100300.34
2023-03-22T10:31:22.401Z,100325.25
2023-03-22T10:36:31.676Z,100309.38
2023-03-22T10:41:35.245Z,100329.88
2023-03-22T10:46:43.130Z,100307.09
2023-03-22T10:51:52.114Z,100295.88
2023-03-22T10:56:54.306Z,100304.28
2023-03-22T11:01:56.680Z,100281.69
2023-03-22T11:06:58.987Z,100301.06
2023-03-22T11:12:02.004Z,100281.81
2023-03-22T11:17:06.858Z,100300.44
2023-03-22T11:22:26.737Z,100268.91
2023-03-22T11:27:33.266Z,100281.47
2023-03-22T11:32:40.148Z,100288.38
2023-03-22T11:37:43.341Z,100265.16
2023-03-22T11:42:46.816Z,100276.66
2023-03-22T11:47:49.394Z,100278.06
2023-03-22T11:52:52.847Z,100276.75
2023-03-22T11:57:57.990Z,100287.25
2023-03-22T12:03:20.772Z,100277.59
2023-03-22T12:08:44.255Z,100281.38
2023-03-22T12:14:00.107Z,100255.66
2023-03-22T12:19:14.062Z,100283.13
2023-03-22T12:24:28.642Z,100277.25
2023-03-22T12:29:32.957Z,100279.72
2023-03-22T12:34:44.030Z,100289.00
2023-03-22T12:40:01.326Z,100275.91
2023-03-22T12:45:12.134Z,100252.09
2023-03-22T12:50:29.321Z,100263.94
2023-03-22T12:55:36.119Z,100247.50
2023-03-22T13:00:49.996Z,100259.41
2023-03-22T13:06:02.505Z,100249.09
2023-03-22T13:11:05.952Z,100234.00
2023-03-22T13:16:11.429Z,100234.69
2023-03-22T13:21:17.616Z,100233.22
2023-03-22T13:26:20.922Z,100218.63
2023-03-22T13:31:58.821Z,100202.88
2023-03-22T13:37:03.913Z,100221.91
2023-03-22T13:42:22.198Z,100219.88
2023-03-22T13:48:29.402Z,100228.53
2023-03-22T13:53:37.864Z,100205.78
2023-03-22T13:58:48.707Z,100212.44
2023-03-22T14:03:51.550Z,100184.13
2023-03-22T14:09:02.896Z,100219.47
2023-03-22T14:14:13.756Z,100199.88
2023-03-22T14:19:23.695Z,100217.84
